Time;durP1;ratioP1;P1;durP2;ratioP2;P2;SDS_P1;SDS_P2;PMS_P1;PMS_P2;Temp;Humidity;BMP_temperature;BMP_pressure;BME280_temperature;BME280_humidity;BME280_pressure;Samples;Min_cycle;Max_cycle;Signal;HPM_P1;HPM_P2
2021/01/12 00:00:34;;;;;;;10.50;8.50;;;;;;;9.08;48.54;100326.79;1802303;78;21185;-63
2021/01/12 00:03:01;;;;;;;10.85;8.80;;;;;;;9.09;48.53;100333.74;1808138;78;21347;-63
2021/01/12 00:05:29;;;;;;;9.73;8.28;;;;;;;9.09;48.50;100333.74;1787899;78;21230;-64
2021/01/12 00:07:56;;;;;;;11.70;8.93;;;;;;;9.09;48.49;100337.72;1806001;78;21151;-63
2021/01/12 00:10:25;;;;;;;11.33;8.65;;;;;;;9.09;48.50;100336.89;1791800;79;21173;-62
2021/01/12 00:12:53;;;;;;;11.78;9.60;;;;;;;9.09;48.49;100335.56;1768731;80;21149;-63
2021/01/12 00:15:21;;;;;;;11.70;9.13;;;;;;;9.09;48.47;100332.42;1794495;78;21352;-63
2021/01/12 00:17:48;;;;;;;11.60;9.15;;;;;;;9.09;48.45;100333.74;1800846;79;21184;-64
2021/01/12 00:20:16;;;;;;;10.70;8.33;;;;;;;9.09;48.45;100333.74;1816283;78;21166;-63
2021/01/12 00:22:44;;;;;;;12.05;8.88;;;;;;;9.09;48.44;100335.56;1791254;78;21168;-64
2021/01/12 00:25:12;;;;;;;10.63;8.45;;;;;;;9.10;48.42;100335.43;1817193;78;21583;-64
2021/01/12 00:27:41;;;;;;;10.25;8.75;;;;;;;9.09;48.42;100335.07;1796979;78;21189;-65
2021/01/12 00:30:10;;;;;;;11.22;8.93;;;;;;;9.08;48.42;100336.06;1806155;78;21151;-65
2021/01/12 00:32:38;;;;;;;11.22;8.85;;;;;;;9.10;48.41;100342.05;1794450;78;21663;-63
2021/01/12 00:35:07;;;;;;;11.50;8.35;;;;;;;9.09;48.44;100339.55;1793884;78;21160;-63
2021/01/12 00:37:35;;;;;;;10.05;8.53;;;;;;;9.09;48.41;100339.05;1807062;78;21169;-64
2021/01/12 00:40:04;;;;;;;10.90;8.40;;;;;;;9.09;48.42;100337.72;1807721;79;21391;-64
2021/01/12 00:42:31;;;;;;;12.33;9.30;;;;;;;9.09;48.41;100338.22;1812460;78;21123;-64
2021/01/12 00:44:58;;;;;;;11.10;8.85;;;;;;;9.10;48.41;100342.05;1802806;79;21179;-63
2021/01/12 00:47:27;;;;;;;9.83;7.83;;;;;;;9.09;48.41;100336.39;1811509;79;21122;-64
2021/01/12 00:49:55;;;;;;;9.98;8.15;;;;;;;9.09;48.40;100328.94;1793559;79;21134;-63
2021/01/12 00:52:22;;;;;;;10.18;8.75;;;;;;;9.09;48.39;100325.80;1784984;79;21337;-64
2021/01/12 00:54:49;;;;;;;10.60;8.45;;;;;;;9.09;48.39;100329.77;1789971;79;21201;-64
2021/01/12 00:57:16;;;;;;;13.30;10.38;;;;;;;9.08;48.36;100330.77;1824779;78;21139;-64
2021/01/12 00:59:45;;;;;;;12.65;8.80;;;;;;;9.09;48.38;100331.09;1795093;79;21195;-64
2021/01/12 01:02:13;;;;;;;9.93;8.20;;;;;;;9.08;48.38;100326.79;1791588;79;21185;-65
2021/01/12 01:04:41;;;;;;;10.93;8.35;;;;;;;9.09;48.38;100327.61;1816900;79;21374;-65
2021/01/12 01:07:08;;;;;;;9.88;8.83;;;;;;;9.09;48.39;100326.29;1797410;79;21188;-64
2021/01/12 01:09:37;;;;;;;10.85;9.13;;;;;;;9.09;48.38;100329.77;1810962;78;21112;-64
2021/01/12 01:12:05;;;;;;;11.88;8.05;;;;;;;9.08;48.35;100322.81;1793911;79;21168;-64
2021/01/12 01:17:25;;;;;;;10.98;8.38;;;;;;;9.11;48.39;100318.53;1820638;75;28361;-64
2021/01/12 01:19:52;;;;;;;10.25;8.73;;;;;;;9.05;48.40;100325.23;1795953;79;21613;-63
2021/01/12 01:22:24;;;;;;;10.40;8.23;;;;;;;9.05;48.38;100322.59;1801165;79;21812;-63
2021/01/12 01:24:51;;;;;;;9.78;8.05;;;;;;;9.07;48.36;100325.59;1784327;79;21618;-65
2021/01/12 01:27:18;;;;;;;10.28;8.00;;;;;;;9.07;48.34;100321.63;1794888;79;21593;-63
2021/01/12 01:29:46;;;;;;;9.13;8.00;;;;;;;9.07;48.35;100325.10;1792969;79;21712;-64
2021/01/12 01:32:13;;;;;;;10.58;8.58;;;;;;;9.08;48.32;100322.81;1798913;79;21060;-64
2021/01/12 01:34:42;;;;;;;10.30;8.23;;;;;;;9.09;48.33;100325.80;1790860;79;21352;-64
2021/01/12 01:37:10;;;;;;;10.10;7.87;;;;;;;9.09;48.29;100322.31;1802495;79;21035;-65
2021/01/12 01:39:37;;;;;;;10.78;7.92;;;;;;;9.09;48.28;100323.64;1774790;79;21098;-64
2021/01/12 01:42:05;;;;;;;9.75;8.40;;;;;;;9.08;48.28;100321.48;1783904;79;21133;-63
2021/01/12 01:44:33;;;;;;;10.20;8.08;;;;;;;9.08;48.24;100318.84;1793325;79;21141;-63
2021/01/12 01:47:00;;;;;;;9.58;7.90;;;;;;;9.09;48.24;100327.11;1775610;79;21426;-64
2021/01/12 01:49:28;;;;;;;11.08;9.25;;;;;;;9.08;48.23;100325.93;1783954;79;22074;-64
2021/01/12 01:51:58;;;;;;;11.73;8.05;;;;;;;9.09;48.24;100324.97;1763153;79;21182;-64
2021/01/12 01:54:28;;;;;;;11.03;7.75;;;;;;;9.08;48.23;100328.11;1768327;79;21189;-63
2021/01/12 01:56:55;;;;;;;9.80;8.18;;;;;;;9.08;48.19;100318.84;1782941;79;21153;-64
2021/01/12 01:59:22;;;;;;;10.05;8.30;;;;;;;9.09;48.17;100316.52;1788205;79;22403;-64
2021/01/12 02:01:49;;;;;;;9.00;7.90;;;;;;;9.09;48.17;100317.84;1773047;79;21987;-65
2021/01/12 02:04:36;;;;;;;10.35;8.35;;;;;;;9.09;48.16;100316.52;1789665;77;21146;-64
2021/01/12 02:07:05;;;;;;;10.23;7.95;;;;;;;9.09;48.17;100311.71;1765545;79;21166;-64
2021/01/12 02:09:49;;;;;;;11.05;8.30;;;;;;;9.08;48.17;100312.68;1768706;79;21178;-64
2021/01/12 02:12:28;;;;;;;12.15;9.05;;;;;;;9.06;48.15;100307.55;1774322;79;22146;-63
2021/01/12 02:14:56;;;;;;;11.53;8.75;;;;;;;9.06;48.15;100307.55;1747751;81;21173;-63
2021/01/12 02:17:29;;;;;;;11.55;8.60;;;;;;;9.06;48.15;100302.25;1753701;81;21149;-63
2021/01/12 02:19:57;;;;;;;11.08;8.53;;;;;;;9.06;48.13;100306.22;1740798;81;21159;-64
2021/01/12 02:22:26;;;;;;;12.00;8.85;;;;;;;9.05;48.12;100302.71;1799624;77;21102;-63
2021/01/12 02:24:57;;;;;;;9.98;7.97;;;;;;;9.07;48.11;100303.07;1793272;78;21441;-63
2021/01/12 02:27:26;;;;;;;9.98;8.20;;;;;;;9.06;48.13;100298.27;1795804;78;21147;-63
2021/01/12 02:29:54;;;;;;;11.45;8.38;;;;;;;9.07;48.12;100297.27;1794809;78;21127;-64
2021/01/12 02:32:21;;;;;;;10.75;8.00;;;;;;;9.06;48.08;100294.30;1806845;78;21157;-64
2021/01/12 02:34:51;;;;;;;11.03;8.35;;;;;;;9.06;48.10;100299.59;1762457;80;21210;-63
2021/01/12 02:37:18;;;;;;;12.07;8.78;;;;;;;9.05;48.11;100286.81;1808406;78;21090;-63
2021/01/12 02:39:57;;;;;;;11.20;8.97;;;;;;;9.06;48.07;100283.69;1789896;78;21193;-64
2021/01/12 02:42:26;;;;;;;12.00;9.08;;;;;;;9.07;48.08;100284.52;1794060;77;21131;-64
2021/01/12 02:44:53;;;;;;;10.78;8.43;;;;;;;9.06;48.05;100274.41;1803189;78;21086;-64
2021/01/12 02:47:21;;;;;;;10.35;8.28;;;;;;;9.07;48.07;100280.55;1799201;78;21158;-64
2021/01/12 02:49:50;;;;;;;11.12;8.70;;;;;;;9.07;48.04;100275.24;1799302;78;21380;-65
2021/01/12 02:52:20;;;;;;;10.80;8.48;;;;;;;9.06;48.06;100269.11;1810720;78;21163;-65
2021/01/12 02:54:49;;;;;;;11.68;9.30;;;;;;;9.06;48.04;100266.47;1794776;78;21145;-65
2021/01/12 02:57:17;;;;;;;12.43;8.58;;;;;;;9.06;48.03;100270.44;1809400;77;21139;-64
2021/01/12 02:59:48;;;;;;;10.95;8.90;;;;;;;9.05;48.03;100263.45;1792858;78;21204;-64
2021/01/12 03:02:15;;;;;;;11.70;8.90;;;;;;;9.06;48.01;100265.14;1789653;78;21152;-66
2021/01/12 03:04:43;;;;;;;11.28;8.83;;;;;;;9.05;48.03;100264.28;1800255;77;21165;-64
2021/01/12 03:07:11;;;;;;;11.33;8.83;;;;;;;9.05;47.99;100263.45;1815490;77;21154;-65
2021/01/12 03:09:40;;;;;;;12.13;8.70;;;;;;;9.05;47.98;100260.80;1810956;78;21157;-64
2021/01/12 03:12:09;;;;;;;10.48;8.30;;;;;;;9.05;47.99;100252.86;1816355;78;21050;-65
2021/01/12 03:14:36;;;;;;;10.63;8.48;;;;;;;9.05;47.96;100252.36;1810353;78;21189;-66
2021/01/12 03:17:12;;;;;;;10.95;9.15;;;;;;;9.05;47.96;100252.36;1801076;78;21184;-66
2021/01/12 03:19:41;;;;;;;12.13;9.63;;;;;;;9.05;47.96;100248.88;1797548;78;21042;-65
2021/01/12 03:22:09;;;;;;;11.55;8.50;;;;;;;9.05;47.96;100254.17;1796513;78;21170;-64
2021/01/12 03:24:37;;;;;;;10.43;8.38;;;;;;;9.05;47.96;100254.17;1819656;78;22493;-64
2021/01/12 03:27:04;;;;;;;11.30;9.00;;;;;;;9.04;47.94;100248.05;1797096;78;21115;-64
2021/01/12 03:29:35;;;;;;;10.78;8.60;;;;;;;9.05;47.93;100248.88;1816418;77;21133;-66
2021/01/12 03:32:02;;;;;;;10.50;8.60;;;;;;;9.04;47.93;100248.05;1798209;78;21169;-65
2021/01/12 03:34:31;;;;;;;12.00;8.65;;;;;;;9.04;47.91;100240.59;1817215;77;21135;-65
2021/01/12 03:36:58;;;;;;;9.80;8.63;;;;;;;9.03;47.92;100241.06;1800528;78;21189;-64
2021/01/12 03:39:26;;;;;;;11.12;8.05;;;;;;;9.04;47.89;100230.00;1801275;78;21366;-64
2021/01/12 03:41:53;;;;;;;9.40;8.38;;;;;;;9.04;47.89;100218.07;1802929;78;21146;-64
2021/01/12 03:44:21;;;;;;;10.40;8.45;;;;;;;9.05;47.86;100223.20;1802098;78;22242;-64
2021/01/12 03:46:48;;;;;;;11.30;8.68;;;;;;;9.05;47.86;100223.20;1801275;77;21182;-63
2021/01/12 03:49:16;;;;;;;11.30;8.68;;;;;;;9.05;47.85;100215.25;1814505;77;21210;-64
2021/01/12 03:51:44;;;;;;;10.82;9.10;;;;;;;9.04;47.84;100206.97;1801806;78;21186;-65
2021/01/12 03:54:11;;;;;;;9.93;7.97;;;;;;;9.06;47.83;100208.16;1809202;78;21165;-66
2021/01/12 03:56:39;;;;;;;9.93;7.97;;;;;;;9.05;47.83;100203.82;1826927;77;21160;-66
2021/01/12 03:59:08;;;;;;;10.78;8.73;;;;;;;9.05;47.82;100206.47;1814608;78;21169;-63
2021/01/12 04:01:43;;;;;;;10.23;8.23;;;;;;;9.05;47.79;100211.27;1797754;78;21165;-63
2021/01/12 04:04:11;;;;;;;10.28;7.97;;;;;;;9.04;47.84;100213.59;1798121;78;21370;-64
2021/01/12 04:06:41;;;;;;;9.78;7.90;;;;;;;9.03;47.79;100205.29;1800958;78;21146;-65
2021/01/12 04:09:11;;;;;;;10.95;8.25;;;;;;;9.04;47.79;100204.82;1800960;78;21118;-63
2021/01/12 04:11:38;;;;;;;9.43;8.28;;;;;;;9.04;47.78;100199.52;1805409;78;21131;-64
2021/01/12 04:14:06;;;;;;;10.10;8.08;;;;;;;9.05;47.77;100203.82;1808151;78;21185;-64
2021/01/12 04:16:34;;;;;;;11.40;8.40;;;;;;;9.04;47.76;100196.87;1804128;78;21429;-66
2021/01/12 04:19:01;;;;;;;10.35;7.75;;;;;;;9.04;47.76;100201.67;1765003;79;21179;-63
2021/01/12 04:21:29;;;;;;;10.58;8.48;;;;;;;9.04;47.79;100199.52;1777344;78;21171;-64
2021/01/12 04:23:56;;;;;;;10.85;8.98;;;;;;;9.04;47.72;100195.55;1764325;79;21173;-63
2021/01/12 04:26:24;;;;;;;9.63;8.00;;;;;;;9.04;47.70;100198.20;1772971;79;21461;-63
2021/01/12 04:28:51;;;;;;;10.15;8.58;;;;;;;9.03;47.70;100196.52;1789377;78;21358;-63
2021/01/12 04:31:19;;;;;;;8.78;7.83;;;;;;;9.04;47.70;100204.82;1786899;79;21151;-64
2021/01/12 04:33:46;;;;;;;11.03;8.70;;;;;;;9.04;47.68;100204.82;1796491;78;21614;-64
2021/01/12 04:36:13;;;;;;;9.83;8.68;;;;;;;9.04;47.68;100200.84;1766893;78;21570;-64
2021/01/12 04:38:40;;;;;;;11.05;8.70;;;;;;;9.03;47.64;100198.66;1772147;79;21197;-64
2021/01/12 04:41:08;;;;;;;10.55;8.63;;;;;;;9.04;47.64;100195.05;1767178;78;21347;-64
2021/01/12 04:43:35;;;;;;;10.38;8.58;;;;;;;9.04;47.62;100192.89;1798135;79;21167;-64
2021/01/12 04:46:03;;;;;;;10.98;8.05;;;;;;;9.04;47.64;100190.24;1754760;79;21139;-63
2021/01/12 04:48:31;;;;;;;10.45;8.88;;;;;;;9.04;47.61;100202.17;1793128;79;21190;-63
2021/01/12 04:51:06;;;;;;;11.00;8.85;;;;;;;9.04;47.61;100188.92;1759615;79;21138;-65
2021/01/12 04:53:47;;;;;;;11.43;8.50;;;;;;;9.03;47.61;100187.23;1784662;79;21323;-64
2021/01/12 04:56:20;;;;;;;11.97;8.83;;;;;;;9.03;47.61;100188.06;1805296;79;21145;-64
2021/01/12 04:58:50;;;;;;;11.00;8.43;;;;;;;9.03;47.63;100179.28;1802099;78;21195;-63
2021/01/12 05:01:22;;;;;;;11.30;8.48;;;;;;;9.01;47.59;100175.95;1784022;79;21150;-65
2021/01/12 05:03:53;;;;;;;10.72;8.25;;;;;;;9.02;47.63;100174.95;1733663;81;21143;-64
2021/01/12 05:06:25;;;;;;;11.57;7.87;;;;;;;9.01;47.65;100168.00;1732460;79;22132;-65
2021/01/12 05:08:57;;;;;;;10.63;8.65;;;;;;;9.01;47.64;100169.33;1729313;81;21139;-65
2021/01/12 05:11:29;;;;;;;11.08;8.85;;;;;;;8.99;47.68;100180.06;1739185;80;28265;-65
2021/01/12 05:14:09;;;;;;;11.28;9.15;;;;;;;8.99;47.63;100180.06;1732735;80;21190;-64
2021/01/12 05:16:48;;;;;;;11.83;9.28;;;;;;;8.99;47.65;100189.34;1728247;81;21182;-66
2021/01/12 05:19:23;;;;;;;9.88;8.65;;;;;;;8.99;47.66;100184.54;1750894;81;22242;-64
2021/01/12 05:21:51;;;;;;;9.90;8.45;;;;;;;8.98;47.68;100184.18;1751504;81;21664;-66
2021/01/12 05:24:20;;;;;;;12.40;8.80;;;;;;;8.97;47.70;100183.36;1743936;81;21195;-65
2021/01/12 05:26:47;;;;;;;12.63;9.58;;;;;;;8.98;47.67;100178.41;1746195;81;21235;-65
2021/01/12 05:29:15;;;;;;;10.95;8.95;;;;;;;8.98;47.69;100184.18;1748116;81;21135;-65
2021/01/12 05:31:45;;;;;;;11.20;8.85;;;;;;;8.98;47.69;100181.53;1748756;81;21447;-63
2021/01/12 05:34:16;;;;;;;11.70;8.95;;;;;;;8.98;47.68;100182.39;1728424;80;21203;-63
2021/01/12 05:36:51;;;;;;;11.30;8.80;;;;;;;8.99;47.66;100180.56;1727298;81;21162;-64
2021/01/12 05:39:22;;;;;;;13.00;10.18;;;;;;;8.99;47.66;100173.94;1767190;78;21669;-63
2021/01/12 05:41:51;;;;;;;11.93;9.45;;;;;;;8.98;47.69;100184.18;1792306;80;21217;-64
2021/01/12 05:44:23;;;;;;;12.63;9.93;;;;;;;8.98;47.72;100182.86;1780721;80;21597;-63
2021/01/12 05:46:52;;;;;;;12.95;9.50;;;;;;;8.97;47.73;100175.91;1779584;79;21179;-63
2021/01/12 05:49:24;;;;;;;13.18;9.68;;;;;;;8.96;47.73;100174.22;1792240;79;21166;-62
2021/01/12 05:51:52;;;;;;;12.25;10.00;;;;;;;8.96;47.75;100179.05;1792308;79;21182;-63
2021/01/12 05:54:34;;;;;;;11.35;9.35;;;;;;;8.96;47.77;100183.03;1792327;79;21142;-63
2021/01/12 05:57:03;;;;;;;13.35;9.75;;;;;;;8.96;47.76;100192.30;1776527;78;21646;-62
2021/01/12 05:59:36;;;;;;;11.63;9.65;;;;;;;8.95;47.77;100184.00;1762384;80;21206;-61
2021/01/12 06:02:09;;;;;;;13.48;10.70;;;;;;;8.95;47.81;100195.92;1702269;81;21163;-63
2021/01/12 06:04:37;;;;;;;12.37;9.95;;;;;;;8.94;47.78;100195.56;1713342;82;21179;-63
2021/01/12 06:07:05;;;;;;;11.80;9.38;;;;;;;8.94;47.79;100192.08;1771032;79;21190;-66
2021/01/12 06:09:33;;;;;;;12.00;9.95;;;;;;;8.94;47.82;100205.33;1761459;80;21434;-63
2021/01/12 06:12:00;;;;;;;12.55;10.35;;;;;;;8.94;47.79;100194.73;1763593;79;21162;-63
2021/01/12 06:14:29;;;;;;;12.28;9.93;;;;;;;8.94;47.82;100194.73;1777456;80;21198;-64
2021/01/12 06:16:58;;;;;;;13.45;10.48;;;;;;;8.94;47.81;100208.81;1766070;78;21163;-65
2021/01/12 06:19:28;;;;;;;13.05;10.43;;;;;;;8.95;47.78;100204.37;1788797;78;21138;-63
2021/01/12 06:22:06;;;;;;;13.80;10.55;;;;;;;8.94;47.81;100199.53;1793208;78;22249;-63
2021/01/12 06:24:41;;;;;;;14.15;10.68;;;;;;;8.94;47.81;100198.70;1803860;78;21118;-63
2021/01/12 06:27:14;;;;;;;12.93;10.20;;;;;;;8.94;47.83;100204.01;1795809;78;21188;-63
2021/01/12 06:29:46;;;;;;;11.83;10.30;;;;;;;8.93;47.83;100205.83;1789108;78;28214;-63
2021/01/12 06:32:22;;;;;;;15.53;10.32;;;;;;;8.93;47.83;100209.80;1797322;78;21134;-64
2021/01/12 06:34:51;;;;;;;11.83;9.58;;;;;;;8.92;47.85;100204.64;1797629;78;21403;-64
2021/01/12 06:37:19;;;;;;;12.63;10.65;;;;;;;8.92;47.85;100199.34;1787753;78;21663;-64
2021/01/12 06:39:57;;;;;;;13.08;11.28;;;;;;;8.92;47.85;100188.75;1796916;78;21642;-64
2021/01/12 06:42:29;;;;;;;13.25;10.75;;;;;;;8.91;47.86;100194.55;1792841;78;21154;-64
2021/01/12 06:44:58;;;;;;;13.45;11.05;;;;;;;8.91;47.86;100194.55;1807637;77;21179;-63
2021/01/12 06:47:29;;;;;;;12.98;10.88;;;;;;;8.91;47.92;100185.27;1797299;78;22193;-63
2021/01/12 06:50:16;;;;;;;12.95;10.68;;;;;;;8.91;47.88;100186.59;1792548;78;22124;-63
2021/01/12 06:52:47;;;;;;;12.58;9.98;;;;;;;8.90;47.88;100179.61;1797876;78;21677;-65
2021/01/12 06:55:17;;;;;;;14.95;10.55;;;;;;;8.91;47.91;100181.80;1791462;78;21178;-64
2021/01/12 06:57:46;;;;;;;13.22;10.55;;;;;;;8.90;47.93;100184.91;1787592;78;21157;-64
2021/01/12 07:00:16;;;;;;;15.18;11.75;;;;;;;8.91;47.93;100177.83;1787750;78;21131;-63
2021/01/12 07:02:43;;;;;;;14.98;10.63;;;;;;;8.91;47.93;100177.33;1787555;78;21205;-63
2021/01/12 07:05:13;;;;;;;14.00;10.40;;;;;;;8.91;47.88;100181.80;1788601;78;21602;-64
2021/01/12 07:07:46;;;;;;;12.18;10.20;;;;;;;8.92;47.87;100176.83;1801328;78;21169;-64
2021/01/12 07:10:15;;;;;;;;;;;;;;;8.92;47.88;100179.47;1794235;78;21154;-63
2021/01/12 07:12:43;;;;;;;12.23;9.45;;;;;;;8.91;47.84;100164.08;1805042;78;21203;-65
2021/01/12 07:15:14;;;;;;;13.22;10.88;;;;;;;8.84;47.94;100170.94;1818868;78;21182;-64
2021/01/12 07:17:55;;;;;;;12.75;10.43;;;;;;;8.84;47.93;100170.44;1812677;78;21208;-65
2021/01/12 07:20:24;;;;;;;13.13;10.23;;;;;;;8.86;47.88;100182.22;1783587;77;21166;-65
2021/01/12 07:23:05;;;;;;;12.78;9.83;;;;;;;8.86;47.88;100184.87;1822810;78;21145;-63
2021/01/12 07:25:45;;;;;;;13.40;10.53;;;;;;;8.87;47.83;100171.98;1804225;77;21330;-62
2021/01/12 07:28:20;;;;;;;12.88;9.95;;;;;;;8.88;47.82;100172.80;1797717;78;21194;-63
2021/01/12 07:30:52;;;;;;;12.37;9.78;;;;;;;8.87;47.80;100171.98;1806898;78;21341;-62
2021/01/12 07:33:22;;;;;;;12.93;9.78;;;;;;;8.88;47.80;100167.50;1809934;78;21284;-62
2021/01/12 07:35:54;;;;;;;11.60;9.93;;;;;;;8.88;47.76;100173.63;1800695;78;21101;-62
2021/01/12 07:38:24;;;;;;;10.75;8.95;;;;;;;8.89;47.75;100163.89;1799430;78;21621;-62
2021/01/12 07:40:53;;;;;;;11.43;9.45;;;;;;;8.89;47.70;100153.29;1796516;78;21196;-64
2021/01/12 07:43:22;;;;;;;12.88;9.50;;;;;;;8.89;47.68;100148.81;1806265;78;21205;-64
2021/01/12 07:45:53;;;;;;;12.40;9.48;;;;;;;8.90;47.67;100153.62;1801636;78;21165;-64
2021/01/12 07:48:22;;;;;;;13.68;10.53;;;;;;;8.90;47.65;100149.64;1797555;78;21578;-65
2021/01/12 07:50:51;;;;;;;12.90;10.80;;;;;;;8.92;47.63;100154.30;1804366;78;23589;-63
2021/01/12 07:53:19;;;;;;;11.75;9.80;;;;;;;8.92;47.63;100158.28;1740307;80;21259;-68
2021/01/12 07:55:47;;;;;;;15.95;9.53;;;;;;;8.93;47.63;100099.02;1789578;79;21147;-63
2021/01/12 08:00:53;;;;;;;12.03;9.30;;;;;;;9.06;51.96;100144.55;1827262;76;28633;-64
2021/01/12 08:03:27;;;;;;;14.43;9.28;;;;;;;9.08;53.39;100153.19;1794868;78;20937;-64
2021/01/12 08:05:58;;;;;;;14.18;10.38;;;;;;;9.11;53.75;100141.44;1797796;78;21134;-64
2021/01/12 08:08:26;;;;;;;11.60;9.43;;;;;;;9.15;53.69;100149.44;1785305;79;21181;-66
2021/01/12 08:10:58;;;;;;;12.53;9.33;;;;;;;9.17;53.46;100146.97;1790929;79;21593;-66
2021/01/12 08:13:25;;;;;;;13.05;9.63;;;;;;;9.20;53.19;100149.83;1816654;77;21633;-67
2021/01/12 08:15:53;;;;;;;13.62;9.48;;;;;;;9.21;52.96;100152.34;1803102;77;21120;-66
2021/01/12 08:18:21;;;;;;;11.80;9.08;;;;;;;9.23;52.69;100150.84;1792869;79;21350;-64
2021/01/12 08:20:54;;;;;;;12.28;8.35;;;;;;;9.24;52.43;100145.39;1792755;77;21180;-65
2021/01/12 08:23:21;;;;;;;11.33;9.30;;;;;;;9.25;52.20;100146.22;1799163;78;21144;-65
2021/01/12 08:25:48;;;;;;;12.03;8.55;;;;;;;9.27;51.93;100146.08;1789148;79;21159;-64
2021/01/12 08:28:15;;;;;;;10.53;8.25;;;;;;;9.28;51.71;100151.23;1804943;78;21154;-64
2021/01/12 08:30:44;;;;;;;12.25;8.48;;;;;;;9.29;51.53;100154.72;1804268;77;21200;-63
2021/01/12 08:33:30;;;;;;;10.95;8.68;;;;;;;9.30;51.34;100152.42;1786792;79;21136;-64
2021/01/12 08:36:08;;;;;;;11.18;9.25;;;;;;;9.30;51.16;100145.80;1803560;78;21653;-63
2021/01/12 08:38:38;;;;;;;11.90;9.05;;;;;;;9.31;50.96;100144.79;1800166;78;21172;-63
2021/01/12 08:41:05;;;;;;;13.08;8.45;;;;;;;9.30;50.80;100139.98;1799693;78;21138;-65
2021/01/12 08:43:33;;;;;;;11.83;9.00;;;;;;;9.31;50.66;100136.84;1790068;78;21793;-63
2021/01/12 08:46:01;;;;;;;10.78;8.50;;;;;;;9.31;50.51;100148.30;1797049;77;21102;-65
2021/01/12 08:48:28;;;;;;;12.20;9.08;;;;;;;9.33;50.39;100140.17;1790814;78;21203;-64
2021/01/12 08:50:56;;;;;;;12.58;9.08;;;;;;;9.33;50.27;100136.19;1775766;78;21339;-66
2021/01/12 08:53:30;;;;;;;10.75;7.95;;;;;;;9.34;50.18;100139.20;1819039;78;21139;-63
2021/01/12 08:56:08;;;;;;;10.82;8.40;;;;;;;9.34;50.07;100135.22;1808254;78;21372;-64
2021/01/12 08:58:36;;;;;;;11.33;8.53;;;;;;;9.34;49.98;100134.72;1804218;78;21199;-66
2021/01/12 09:01:04;;;;;;;11.43;8.55;;;;;;;9.35;49.86;100132.89;1791228;78;21185;-63
2021/01/12 09:03:33;;;;;;;10.78;8.03;;;;;;;9.35;49.79;100138.20;1799978;78;21138;-62
2021/01/12 09:06:01;;;;;;;11.45;8.73;;;;;;;9.37;49.69;100137.59;1792679;78;21186;-65
2021/01/12 09:08:28;;;;;;;11.25;8.70;;;;;;;9.37;49.59;100136.27;1800119;78;21190;-65
2021/01/12 09:10:59;;;;;;;9.53;7.55;;;;;;;9.38;49.50;100129.45;1805992;78;21178;-65
2021/01/12 09:13:28;;;;;;;10.82;8.08;;;;;;;9.40;49.42;100130.64;1788509;77;21463;-65
2021/01/12 09:15:55;;;;;;;10.18;8.10;;;;;;;9.40;49.35;100127.48;1786857;78;21134;-63
2021/01/12 09:18:25;;;;;;;10.20;8.30;;;;;;;9.41;49.28;100119.06;1787130;79;21120;-64
2021/01/12 09:20:59;;;;;;;10.20;7.78;;;;;;;9.41;49.24;100129.66;1779438;79;21193;-66
2021/01/12 09:23:28;;;;;;;9.35;7.72;;;;;;;9.41;49.15;100112.43;1796092;78;21219;-64
2021/01/12 09:26:03;;;;;;;9.30;7.40;;;;;;;9.42;49.09;100121.53;1779034;78;21126;-64
2021/01/12 09:28:39;;;;;;;9.80;7.60;;;;;;;9.43;49.04;100126.38;1777118;79;21606;-64
2021/01/12 09:31:13;;;;;;;9.63;7.53;;;;;;;9.42;49.00;100117.56;1772702;80;21633;-64
2021/01/12 09:33:50;;;;;;;11.08;8.28;;;;;;;9.42;48.92;100111.43;1776629;79;22126;-63
2021/01/12 09:36:18;;;;;;;9.50;7.35;;;;;;;9.44;48.87;100106.81;1772410;80;21268;-62
2021/01/12 09:38:50;;;;;;;9.35;7.75;;;;;;;9.44;48.82;100126.23;1786726;79;21158;-68
2021/01/12 09:41:26;;;;;;;10.30;7.97;;;;;;;9.44;48.79;100110.78;1766636;80;21185;-64
2021/01/12 09:43:54;;;;;;;9.78;7.78;;;;;;;9.44;48.70;100101.03;1777146;79;21178;-65
2021/01/12 09:46:22;;;;;;;10.45;7.42;;;;;;;9.45;48.67;100091.25;1763533;78;21368;-64
2021/01/12 09:48:49;;;;;;;9.83;7.85;;;;;;;9.45;48.62;100089.92;1778914;79;21174;-65
2021/01/12 09:51:17;;;;;;;12.30;8.45;;;;;;;9.46;48.59;100080.97;1790100;78;21217;-65
2021/01/12 09:53:49;;;;;;;9.58;7.40;;;;;;;9.47;48.56;100067.23;1799139;77;21153;-64
2021/01/12 09:56:18;;;;;;;9.80;7.53;;;;;;;9.47;48.55;100059.28;1808548;78;21153;-64
2021/01/12 09:58:47;;;;;;;11.20;7.55;;;;;;;9.48;48.47;100056.95;1804323;78;21348;-65
2021/01/12 10:01:18;;;;;;;11.60;7.50;;;;;;;9.48;48.44;100051.15;1801350;78;21495;-62
2021/01/12 10:03:49;;;;;;;10.13;7.62;;;;;;;9.49;48.39;100047.52;1783133;78;21158;-62
2021/01/12 10:06:17;;;;;;;9.08;7.50;;;;;;;9.51;48.35;100052.68;1760429;80;21155;-62
2021/01/12 10:08:46;;;;;;;8.70;7.50;;;;;;;9.51;48.32;100042.89;1802844;78;21420;-62
2021/01/12 10:11:15;;;;;;;10.78;8.25;;;;;;;9.52;48.30;100019.38;1802678;78;21386;-63
2021/01/12 10:13:46;;;;;;;11.22;8.83;;;;;;;9.53;48.23;100021.03;1799386;78;21142;-63
2021/01/12 10:16:23;;;;;;;9.43;7.55;;;;;;;9.54;48.21;100015.22;1765625;80;21369;-63
2021/01/12 10:18:51;;;;;;;10.75;8.18;;;;;;;9.55;48.19;100011.59;1790915;78;21416;-65
2021/01/12 10:21:18;;;;;;;9.03;7.62;;;;;;;9.54;48.16;100002.81;1769677;80;21103;-65
2021/01/12 10:23:46;;;;;;;8.80;7.58;;;;;;;9.55;48.13;100005.80;1820952;78;21602;-64
2021/01/12 10:26:18;;;;;;;9.13;7.55;;;;;;;9.57;48.11;100005.64;1814712;77;21112;-65
2021/01/12 10:28:47;;;;;;;8.55;7.25;;;;;;;9.57;48.09;99997.19;1786993;78;21614;-62
2021/01/12 10:31:18;;;;;;;10.38;7.62;;;;;;;9.59;48.05;99991.73;1806561;78;21178;-63
2021/01/12 10:33:45;;;;;;;9.63;7.95;;;;;;;9.59;48.04;99991.23;1798858;77;21145;-64
2021/01/12 10:36:15;;;;;;;9.15;7.53;;;;;;;9.60;48.00;99982.30;1803120;77;21345;-65
2021/01/12 10:38:42;;;;;;;9.75;8.18;;;;;;;9.61;47.96;99975.98;1800254;78;21141;-65
2021/01/12 10:41:09;;;;;;;9.95;7.20;;;;;;;9.62;47.92;99972.86;1791337;78;21151;-62
2021/01/12 10:43:37;;;;;;;10.40;7.70;;;;;;;9.63;47.91;99969.20;1798391;77;21614;-62
2021/01/12 10:46:05;;;;;;;9.85;7.78;;;;;;;9.63;47.87;99970.53;1801432;78;21102;-63
2021/01/12 10:48:32;;;;;;;9.48;7.60;;;;;;;9.63;47.82;99960.75;1796784;78;21367;-63
2021/01/12 10:51:00;;;;;;;8.50;6.80;;;;;;;9.64;47.79;99947.84;1787448;78;21170;-63
2021/01/12 10:53:27;;;;;;;9.48;7.08;;;;;;;9.65;47.73;99946.83;1788660;78;21181;-65
2021/01/12 10:55:57;;;;;;;9.05;7.10;;;;;;;9.65;47.72;99944.68;1787627;77;21140;-65
2021/01/12 10:58:24;;;;;;;7.90;6.50;;;;;;;9.64;47.69;99934.57;1802925;78;21130;-64
2021/01/12 11:00:52;;;;;;;8.75;6.92;;;;;;;9.63;47.67;99930.24;1805897;78;21398;-64
2021/01/12 11:03:21;;;;;;;9.95;7.85;;;;;;;9.64;47.67;99935.90;1788490;78;21180;-63
2021/01/12 11:05:54;;;;;;;9.08;7.22;;;;;;;9.63;47.65;99931.56;1792365;78;21195;-63
2021/01/12 11:08:22;;;;;;;8.85;7.08;;;;;;;9.63;47.66;99937.38;1797507;78;21175;-64
2021/01/12 11:10:52;;;;;;;9.88;7.92;;;;;;;9.63;47.67;99951.47;1796083;78;21149;-63
2021/01/12 11:13:21;;;;;;;8.58;7.37;;;;;;;9.62;47.64;99935.22;1798317;78;21322;-66
2021/01/12 11:15:48;;;;;;;10.40;7.87;;;;;;;9.62;47.65;99938.38;1810451;77;21223;-63
2021/01/12 11:18:16;;;;;;;10.13;8.05;;;;;;;9.62;47.64;99947.66;1790300;78;21157;-64
2021/01/12 11:20:46;;;;;;;8.30;6.83;;;;;;;9.62;47.62;99948.48;1792623;77;21212;-65
2021/01/12 11:23:14;;;;;;;10.35;8.33;;;;;;;9.62;47.59;99938.38;1799334;78;21172;-63
2021/01/12 11:25:42;;;;;;;9.53;7.12;;;;;;;9.62;47.58;99926.45;1810139;77;21381;-66
2021/01/12 11:28:09;;;;;;;9.88;7.42;;;;;;;9.62;47.56;99933.08;1795729;78;21193;-64
2021/01/12 11:30:38;;;;;;;8.85;7.08;;;;;;;9.61;47.54;99920.28;1787915;77;21146;-65
2021/01/12 11:33:10;;;;;;;9.10;6.97;;;;;;;9.62;47.55;99925.95;1788421;78;21148;-64
2021/01/12 11:35:38;;;;;;;10.15;7.08;;;;;;;9.61;47.53;99928.24;1804901;77;21625;-64
2021/01/12 11:38:06;;;;;;;9.45;7.47;;;;;;;9.62;47.51;99932.58;1806075;78;21360;-65
2021/01/12 11:40:34;;;;;;;9.43;7.53;;;;;;;9.61;47.50;99934.88;1792772;78;21157;-63
2021/01/12 11:43:03;;;;;;;9.68;7.45;;;;;;;9.60;47.50;99938.53;1794281;78;21172;-62